Time;durP1;ratioP1;P1;durP2;ratioP2;P2;SDS_P1;SDS_P2;PMS_P1;PMS_P2;Temp;Humidity;BMP_temperature;BMP_pressure;BME280_temperature;BME280_humidity;BME280_pressure;Samples;Min_cycle;Max_cycle;Signal;HPM_P1;HPM_P2
2022/11/23 00:04:44;;;;;;;5.78;1.40;;;;;;;7.99;80.96;98687.19;10539453;27;20054;-70
2022/11/23 00:09:45;;;;;;;2.90;1.48;;;;;;;7.99;80.80;98692.47;10544994;28;20107;-71
2022/11/23 00:14:47;;;;;;;3.35;1.40;;;;;;;8.02;80.80;98694.81;10571268;27;20043;-71
2022/11/23 00:19:48;;;;;;;5.38;1.45;;;;;;;8.07;80.58;98692.56;10558645;28;20077;-71
2022/11/23 00:24:49;;;;;;;5.78;1.80;;;;;;;8.08;80.24;98686.28;10541846;28;20560;-75
2022/11/23 00:29:51;;;;;;;3.63;1.67;;;;;;;8.04;80.58;98692.03;10569674;28;20047;-73
2022/11/23 00:34:52;;;;;;;5.68;1.90;;;;;;;7.99;80.37;98684.53;10555825;28;20237;-73
2022/11/23 00:39:53;;;;;;;5.53;1.63;;;;;;;7.92;80.90;98688.72;10557037;28;20143;-70
2022/11/23 00:44:55;;;;;;;3.03;1.27;;;;;;;7.96;80.95;98688.28;10524444;28;20047;-70
2022/11/23 00:49:56;;;;;;;3.38;1.45;;;;;;;7.99;80.79;98689.81;10527454;28;20043;-71
2022/11/23 00:54:57;;;;;;;3.05;1.55;;;;;;;8.04;80.44;98684.91;10526236;28;20051;-71
2022/11/23 00:59:59;;;;;;;3.35;1.52;;;;;;;8.05;80.69;98697.19;10527046;28;21708;-70
2022/11/23 01:05:02;;;;;;;6.65;1.70;;;;;;;8.07;80.37;98702.34;10523056;28;20051;-70
2022/11/23 01:10:04;;;;;;;6.47;1.48;;;;;;;7.96;80.83;98704.19;10524576;28;20054;-70
2022/11/23 01:15:05;;;;;;;4.57;1.85;;;;;;;7.92;81.02;98705.44;10523363;27;20048;-71
2022/11/23 01:20:08;;;;;;;3.72;1.55;;;;;;;7.99;80.84;98708.38;10524442;27;20047;-71
2022/11/23 01:25:09;;;;;;;4.05;1.80;;;;;;;8.02;80.92;98710.72;10518183;28;20392;-70
2022/11/23 01:30:11;;;;;;;6.25;2.53;;;;;;;8.09;80.67;98711.81;10508288;28;20052;-71
2022/11/23 01:35:12;;;;;;;5.32;1.75;;;;;;;8.12;80.87;98721.28;10525871;27;20051;-70
2022/11/23 01:40:14;;;;;;;6.10;1.83;;;;;;;8.13;80.47;98721.13;10522781;28;20051;-71
2022/11/23 01:45:35;;;;;;;4.35;1.55;;;;;;;8.06;80.89;98720.06;10522748;28;20193;-70
2022/11/23 01:50:37;;;;;;;6.75;2.35;;;;;;;8.00;81.00;98723.31;10524574;28;20055;-71
2022/11/23 01:55:39;;;;;;;4.80;2.28;;;;;;;8.04;81.47;98713.22;10522880;28;20052;-70
2022/11/23 02:00:41;;;;;;;4.18;2.00;;;;;;;8.04;81.21;98724.66;10522424;28;20058;-71
2022/11/23 02:05:47;;;;;;;6.30;2.08;;;;;;;7.96;81.54;98719.25;10520480;28;20059;-70
2022/11/23 02:10:48;;;;;;;5.90;1.77;;;;;;;8.01;81.37;98714.34;10509002;28;20059;-70
2022/11/23 02:15:51;;;;;;;6.43;2.17;;;;;;;8.10;80.92;98712.66;10521126;28;20047;-71
2022/11/23 02:20:52;;;;;;;4.93;1.60;;;;;;;8.10;80.83;98718.78;10527127;28;20577;-70
2022/11/23 02:25:59;;;;;;;4.70;1.80;;;;;;;8.02;81.18;98713.38;10521282;28;20536;-71
2022/11/23 02:31:01;;;;;;;6.78;2.00;;;;;;;7.96;81.56;98701.53;10535784;28;20067;-71
2022/11/23 02:36:37;;;;;;;7.07;1.80;;;;;;;7.98;81.56;98709.34;10518113;28;20070;-71
2022/11/23 02:41:50;;;;;;;5.18;1.35;;;;;;;8.12;81.09;98715.97;10533679;28;20099;-70
2022/11/23 02:46:52;;;;;;;2.88;1.70;;;;;;;8.13;80.87;98718.47;10554984;28;20044;-70
2022/11/23 02:51:54;;;;;;;5.32;1.60;;;;;;;8.18;80.49;98706.63;10516094;28;20059;-71
2022/11/23 02:56:55;;;;;;;4.05;1.77;;;;;;;8.22;80.26;98711.47;10532515;28;20116;-72
2022/11/23 03:01:58;;;;;;;5.65;1.60;;;;;;;8.20;80.32;98715.28;10551983;28;20678;-71
2022/11/23 03:06:59;;;;;;;4.97;1.90;;;;;;;8.18;80.52;98709.25;10522270;28;20051;-70
2022/11/23 03:12:00;;;;;;;4.10;1.60;;;;;;;8.22;80.16;98715.97;10519254;28;21121;-70
2022/11/23 03:17:02;;;;;;;4.75;1.45;;;;;;;8.25;80.02;98720.97;10521139;28;20044;-73
2022/11/23 03:22:03;;;;;;;5.80;1.70;;;;;;;8.28;80.03;98720.66;10519975;28;20459;-70
2022/11/23 03:27:05;;;;;;;3.75;2.03;;;;;;;8.30;79.93;98724.00;10519793;28;20173;-69
2022/11/23 03:32:06;;;;;;;6.88;2.47;;;;;;;8.34;80.13;98719.25;10517747;28;20055;-69
2022/11/23 03:37:07;;;;;;;3.03;2.13;;;;;;;8.35;79.68;98727.06;10523030;28;20043;-69
2022/11/23 03:42:08;;;;;;;4.60;1.52;;;;;;;8.18;79.85;98715.41;10516839;28;20048;-70
2022/11/23 03:47:10;;;;;;;3.42;1.40;;;;;;;8.09;80.63;98719.78;10560800;28;20047;-70
2022/11/23 03:52:12;;;;;;;8.38;1.77;;;;;;;8.11;81.01;98733.72;10527857;28;20039;-69
2022/11/23 03:57:14;;;;;;;6.30;1.85;;;;;;;8.16;80.79;98714.72;10511114;28;20043;-70
2022/11/23 04:02:15;;;;;;;4.63;1.60;;;;;;;8.22;80.76;98723.91;10509089;28;20659;-69
2022/11/23 04:07:16;;;;;;;6.78;2.00;;;;;;;8.12;81.07;98732.75;10531290;28;20075;-69
2022/11/23 04:12:18;;;;;;;5.35;1.50;;;;;;;8.14;81.12;98729.94;10530100;28;20396;-69
2022/11/23 04:17:19;;;;;;;5.75;1.85;;;;;;;8.17;80.76;98728.78;10530299;28;20071;-70
2022/11/23 04:22:20;;;;;;;5.88;2.20;;;;;;;8.09;80.97;98725.06;10534900;28;20122;-69
2022/11/23 04:27:22;;;;;;;5.53;1.92;;;;;;;8.07;81.20;98734.97;10530002;28;20139;-70
2022/11/23 04:32:23;;;;;;;5.15;2.35;;;;;;;8.09;81.55;98726.88;10527538;28;20052;-69
2022/11/23 04:37:25;;;;;;;6.22;1.85;;;;;;;8.25;80.82;98736.88;10523185;27;20438;-70
2022/11/23 04:42:26;;;;;;;6.10;1.63;;;;;;;8.25;80.76;98743.00;10531845;28;20052;-69
2022/11/23 04:47:27;;;;;;;5.53;2.00;;;;;;;8.24;80.36;98740.50;10534485;27;20122;-71
2022/11/23 04:52:29;;;;;;;7.60;1.80;;;;;;;8.14;80.42;98735.25;10538970;28;20051;-72
2022/11/23 04:57:30;;;;;;;5.35;1.63;;;;;;;8.21;80.75;98730.19;10564079;28;20043;-72
2022/11/23 05:02:31;;;;;;;5.55;1.73;;;;;;;8.17;81.15;98734.09;10531096;28;20048;-70
2022/11/23 05:07:33;;;;;;;7.00;1.50;;;;;;;8.16;80.87;98732.44;10515027;27;20143;-69
2022/11/23 05:12:35;;;;;;;5.43;2.28;;;;;;;8.21;80.77;98732.84;10520003;28;20614;-69
2022/11/23 05:17:36;;;;;;;8.23;1.75;;;;;;;8.22;80.66;98731.84;10547460;27;20131;-72
2022/11/23 05:22:38;;;;;;;6.03;1.70;;;;;;;8.19;80.43;98721.56;10543752;28;20052;-69
2022/11/23 05:27:39;;;;;;;9.50;2.40;;;;;;;8.27;80.87;98734.91;10551832;28;20063;-72
2022/11/23 05:32:40;;;;;;;8.65;2.25;;;;;;;8.29;80.43;98738.25;10561078;28;20054;-74
2022/11/23 05:37:42;;;;;;;5.97;2.33;;;;;;;8.28;80.37;98731.28;10568848;28;20058;-72
2022/11/23 05:42:43;;;;;;;5.93;1.85;;;;;;;8.31;80.56;98728.31;10571675;27;20056;-73
2022/11/23 05:47:49;;;;;;;4.82;1.40;;;;;;;8.37;79.83;98742.81;10569624;28;20059;-70
2022/11/23 05:52:51;;;;;;;5.85;1.67;;;;;;;8.32;80.05;98749.38;10549988;27;20055;-73
2022/11/23 05:57:52;;;;;;;5.60;1.77;;;;;;;8.37;80.60;98750.78;10519172;28;20510;-70
2022/11/23 06:02:59;;;;;;;4.65;1.48;;;;;;;8.35;80.12;98752.72;10510945;28;20055;-72
2022/11/23 06:08:00;;;;;;;4.18;1.98;;;;;;;8.36;80.42;98754.41;10509717;28;20040;-70
2022/11/23 06:13:03;;;;;;;5.93;1.70;;;;;;;8.33;80.43;98755.50;10510326;28;20039;-70
2022/11/23 06:18:05;;;;;;;5.72;2.08;;;;;;;8.38;80.64;98757.75;10507588;28;20044;-69
2022/11/23 06:23:06;;;;;;;3.78;1.58;;;;;;;8.31;80.31;98757.50;10509480;28;20067;-70
2022/11/23 06:28:07;;;;;;;4.63;1.80;;;;;;;8.39;80.88;98765.56;10510666;28;20054;-71
2022/11/23 06:33:09;;;;;;;4.03;1.65;;;;;;;8.34;81.21;98783.72;10529420;28;20107;-70
2022/11/23 06:38:10;;;;;;;6.78;2.75;;;;;;;8.29;80.99;98757.63;10547127;28;20065;-71
2022/11/23 06:43:12;;;;;;;5.88;2.03;;;;;;;8.31;81.38;98768.09;10532116;28;20048;-71
2022/11/23 06:48:13;;;;;;;5.47;2.03;;;;;;;8.26;81.36;98771.19;10550181;28;20043;-71
2022/11/23 06:53:15;;;;;;;7.72;2.35;;;;;;;8.15;81.84;98774.00;10526310;28;20070;-69
2022/11/23 06:58:16;;;;;;;4.43;1.90;;;;;;;8.21;81.75;98772.59;10487455;28;20059;-69
2022/11/23 07:03:22;;;;;;;6.82;1.75;;;;;;;8.26;81.58;98783.63;10506456;28;20055;-71
2022/11/23 07:08:24;;;;;;;7.00;2.33;;;;;;;8.30;81.37;98779.66;10502308;28;20524;-70
2022/11/23 07:13:25;;;;;;;7.40;2.28;;;;;;;8.30;81.76;98788.47;10506235;28;20052;-68
2022/11/23 07:18:27;;;;;;;4.88;1.83;;;;;;;8.34;81.35;98786.38;10505613;28;20040;-70
2022/11/23 07:23:28;;;;;;;5.10;2.03;;;;;;;8.40;80.86;98785.78;10509809;28;20738;-70
2022/11/23 07:28:30;;;;;;;6.55;1.83;;;;;;;8.40;80.67;98790.25;10513444;28;20591;-70
2022/11/23 07:33:31;;;;;;;5.72;2.10;;;;;;;8.37;80.80;98799.31;10515779;28;20047;-70
2022/11/23 07:38:33;;;;;;;8.13;2.55;;;;;;;8.36;80.83;98800.31;10513287;28;20604;-71
2022/11/23 07:43:34;;;;;;;6.63;2.50;;;;;;;8.35;81.20;98793.34;10512592;27;20321;-68
2022/11/23 07:48:35;;;;;;;5.30;2.35;;;;;;;8.39;80.53;98802.69;10509806;28;20432;-68
2022/11/23 07:53:37;;;;;;;6.45;2.40;;;;;;;8.53;79.96;98812.00;10508886;28;20049;-69
2022/11/23 07:58:38;;;;;;;6.97;2.58;;;;;;;8.64;79.89;98811.81;10506510;27;20056;-70
2022/11/23 08:03:40;;;;;;;10.07;2.10;;;;;;;8.46;79.53;98810.91;10492562;28;20058;-68
2022/11/23 08:08:41;;;;;;;3.63;2.03;;;;;;;8.44;79.74;98816.38;10513126;28;20142;-70
2022/11/23 08:13:43;;;;;;;8.20;3.53;;;;;;;8.43;80.15;98817.31;10526848;27;20051;-70
2022/11/23 08:18:45;;;;;;;5.70;1.77;;;;;;;8.55;80.21;98818.00;10515643;28;20051;-69
2022/11/23 08:23:46;;;;;;;6.00;2.30;;;;;;;8.53;79.46;98811.16;10525695;27;20043;-70
2022/11/23 08:28:48;;;;;;;5.32;1.67;;;;;;;8.57;79.09;98815.19;10496126;28;20888;-73
2022/11/23 08:33:49;;;;;;;4.88;2.50;;;;;;;8.55;79.49;98812.69;10443547;22;20061;-62
2022/11/23 08:38:51;;;;;;;4.53;2.13;;;;;;;8.71;79.03;98817.38;10259105;28;20050;-64
2022/11/23 08:43:53;;;;;;;6.82;2.40;;;;;;;8.79;77.80;98820.13;10283708;28;20064;-62
2022/11/23 08:48:54;;;;;;;8.07;2.10;;;;;;;8.88;77.05;98825.53;10302069;22;20059;-71
2022/11/23 08:53:55;;;;;;;5.32;2.20;;;;;;;9.07;76.40;98817.47;10462352;28;20420;-72
2022/11/23 08:58:57;;;;;;;4.13;1.75;;;;;;;9.18;75.51;98817.25;10453008;28;20229;-70
2022/11/23 09:03:58;;;;;;;5.95;3.00;;;;;;;9.20;75.64;98817.09;10457574;28;20036;-70
2022/11/23 09:09:00;;;;;;;6.53;1.85;;;;;;;9.23;74.69;98815.97;10460217;28;20145;-70
2022/11/23 09:14:02;;;;;;;11.82;2.78;;;;;;;9.14;74.53;98817.69;10477210;28;20044;-71
2022/11/23 09:19:04;;;;;;;5.78;2.35;;;;;;;9.16;74.78;98816.56;10487808;28;20105;-71
2022/11/23 09:24:06;;;;;;;4.45;2.13;;;;;;;9.34;73.66;98823.72;10499583;28;20058;-71
2022/11/23 09:29:08;;;;;;;6.13;1.95;;;;;;;9.45;73.14;98822.66;10506604;28;20048;-70
2022/11/23 09:34:12;;;;;;;6.07;1.75;;;;;;;9.58;71.71;98817.81;10457014;28;20064;-71
2022/11/23 09:39:14;;;;;;;7.68;1.77;;;;;;;9.80;71.08;98819.16;10469402;28;20689;-72
2022/11/23 09:44:54;;;;;;;5.05;2.50;;;;;;;10.16;70.00;98818.25;10466184;28;20742;-70
2022/11/23 09:50:22;;;;;;;6.85;1.73;;;;;;;10.58;68.01;98814.88;10463131;28;20044;-70
2022/11/23 09:55:36;;;;;;;9.88;2.28;;;;;;;10.92;66.18;98814.84;10406120;28;20059;-72
2022/11/23 10:00:45;;;;;;;8.13;2.28;;;;;;;11.46;64.35;98825.16;10459902;28;20052;-71
2022/11/23 10:06:00;;;;;;;6.25;2.00;;;;;;;11.99;62.88;98817.72;10464933;28;20059;-72
2022/11/23 10:11:42;;;;;;;5.88;2.08;;;;;;;11.45;62.30;98814.66;10465790;28;20164;-72
2022/11/23 10:17:10;;;;;;;5.55;1.83;;;;;;;11.61;61.89;98808.53;10413534;28;20071;-70
2022/11/23 10:22:21;;;;;;;4.97;2.00;;;;;;;13.60;55.35;98810.41;10447049;28;20052;-71
2022/11/23 10:27:24;;;;;;;5.63;1.63;;;;;;;18.51;44.61;98794.38;10475914;28;20052;-72
2022/11/23 10:32:32;;;;;;;4.60;1.60;;;;;;;20.13;37.65;98783.38;10469276;28;20559;-69
2022/11/23 10:37:34;;;;;;;5.35;1.65;;;;;;;22.28;34.73;98791.41;10436629;28;20054;-69
2022/11/23 10:42:42;;;;;;;6.57;1.73;;;;;;;23.07;33.50;98788.25;10437422;28;20052;-71
2022/11/23 10:47:57;;;;;;;3.75;1.63;;;;;;;23.41;31.39;98782.97;10459826;28;20051;-69
2022/11/23 10:53:24;;;;;;;3.63;1.40;;;;;;;24.38;30.91;98774.78;10461120;28;21502;-70
2022/11/23 10:58:30;;;;;;;4.32;1.65;;;;;;;25.15;28.11;98773.06;10460339;28;20744;-70
2022/11/23 11:03:33;;;;;;;6.82;2.83;;;;;;;25.71;27.39;98760.03;10454624;28;20048;-70
2022/11/23 11:08:52;;;;;;;7.70;6.90;;;;;;;25.53;26.91;98758.50;10459764;28;20925;-72
2022/11/23 11:14:12;;;;;;;4.57;1.70;;;;;;;25.94;26.19;98744.41;10460094;28;20048;-72
2022/11/23 11:19:27;;;;;;;6.68;3.10;;;;;;;25.94;25.84;98747.13;10458389;28;20040;-71
2022/11/23 11:24:45;;;;;;;5.22;2.30;;;;;;;27.40;23.86;98732.03;10432926;28;20068;-71
2022/11/23 11:29:50;;;;;;;4.18;1.63;;;;;;;27.24;23.36;98733.06;10451568;28;20046;-72
2022/11/23 11:34:57;;;;;;;3.72;1.75;;;;;;;26.86;23.85;98721.50;10440529;28;20501;-74
2022/11/23 11:40:18;;;;;;;4.78;1.42;;;;;;;27.68;23.23;98711.56;10462986;28;20216;-71
2022/11/23 11:45:23;;;;;;;5.75;2.13;;;;;;;29.53;21.78;98710.09;10463814;28;20554;-72
2022/11/23 11:50:30;;;;;;;6.32;1.40;;;;;;;28.07;22.19;98703.88;10464062;28;21458;-73
2022/11/23 11:55:49;;;;;;;3.33;1.35;;;;;;;28.61;21.01;98697.72;10433807;28;20056;-72
2022/11/23 12:01:05;;;;;;;3.08;1.35;;;;;;;28.46;21.59;98700.50;10459869;28;20066;-73
2022/11/23 12:06:20;;;;;;;3.90;1.30;;;;;;;28.00;21.24;98690.50;10457889;28;20082;-72
2022/11/23 12:11:27;;;;;;;4.53;1.40;;;;;;;29.04;20.42;98678.06;10459946;28;20058;-72
2022/11/23 12:16:49;;;;;;;6.22;1.70;;;;;;;29.72;19.53;98671.78;10459509;28;20071;-71
2022/11/23 12:22:47;;;;;;;4.72;1.20;;;;;;;30.79;18.33;98670.91;10448712;28;20052;-71
2022/11/23 12:28:22;;;;;;;4.30;1.55;;;;;;;30.76;19.13;98663.25;10457413;28;20046;-71
2022/11/23 12:33:59;;;;;;;4.28;0.80;;;;;;;29.67;18.83;98652.66;10455812;28;20146;-72
2022/11/23 12:39:18;;;;;;;3.20;0.90;;;;;;;30.17;18.40;98644.22;10455187;28;20202;-72
2022/11/23 12:44:39;;;;;;;11.05;1.58;;;;;;;29.77;18.52;98651.72;10458138;28;20048;-73
2022/11/23 12:49:55;;;;;;;4.50;1.00;;;;;;;29.74;19.00;98652.31;10438813;28;20071;-73
2022/11/23 12:55:35;;;;;;;3.50;1.35;;;;;;;31.27;18.28;98629.59;10438317;28;20052;-73
2022/11/23 13:00:52;;;;;;;4.38;1.70;;;;;;;32.15;17.14;98619.78;10455910;28;20052;-73
2022/11/23 13:06:02;;;;;;;1.83;0.90;;;;;;;31.76;16.80;98621.88;10432592;28;20660;-73
2022/11/23 13:11:25;;;;;;;4.70;1.23;;;;;;;30.77;17.43;98612.72;10456813;28;20059;-75
2022/11/23 13:17:00;;;;;;;4.25;1.00;;;;;;;31.72;16.65;98621.69;10441624;28;20217;-73
2022/11/23 13:22:09;;;;;;;2.60;0.70;;;;;;;30.11;17.00;98628.91;10464090;28;20058;-74
2022/11/23 13:27:13;;;;;;;3.65;0.60;;;;;;;29.50;17.37;98620.22;10470752;28;20040;-73
2022/11/23 13:32:41;;;;;;;3.20;0.70;;;;;;;28.08;19.26;98627.03;10460110;28;20071;-73
2022/11/23 13:37:55;;;;;;;3.33;0.98;;;;;;;21.96;25.97;98626.50;10457726;28;20056;-72
2022/11/23 13:43:01;;;;;;;2.50;0.60;;;;;;;19.05;30.92;98619.78;10441579;28;20702;-70
2022/11/23 13:48:10;;;;;;;3.03;0.70;;;;;;;17.87;33.75;98608.28;10458702;28;20158;-69
2022/11/23 13:53:35;;;;;;;2.38;0.60;;;;;;;16.65;35.15;98595.03;10456989;28;20687;-69
2022/11/23 13:58:38;;;;;;;3.42;0.85;;;;;;;15.66;37.30;98590.88;10452185;28;20647;-71
2022/11/23 14:03:47;;;;;;;3.25;0.98;;;;;;;15.23;39.09;98588.31;10448649;28;20052;-73
2022/11/23 14:09:01;;;;;;;3.75;1.05;;;;;;;14.84;39.19;98580.56;10457838;28;20311;-70
2022/11/23 14:14:13;;;;;;;3.55;1.33;;;;;;;14.19;39.16;98562.78;10468566;28;20434;-71
2022/11/23 14:19:45;;;;;;;2.00;0.65;;;;;;;13.70;39.84;98586.41;10459337;28;20060;-71
2022/11/23 14:25:22;;;;;;;3.92;1.17;;;;;;;13.48;40.30;98573.97;10360121;28;20043;-70
2022/11/23 14:30:37;;;;;;;2.38;0.98;;;;;;;13.39;40.18;98566.03;10464760;28;20047;-72
2022/11/23 14:36:11;;;;;;;3.35;0.90;;;;;;;13.31;40.73;98560.72;10448923;28;20067;-71
2022/11/23 14:41:24;;;;;;;6.35;1.30;;;;;;;13.14;41.06;98559.25;10462669;28;20040;-72
2022/11/23 14:46:26;;;;;;;4.47;1.52;;;;;;;12.95;41.61;98557.91;10446742;28;20098;-72
2022/11/23 14:51:27;;;;;;;5.95;1.52;;;;;;;12.79;41.89;98557.06;10463577;28;20044;-71
2022/11/23 14:56:32;;;;;;;2.97;0.75;;;;;;;12.37;43.47;98564.50;10463444;28;20048;-72
2022/11/23 15:01:35;;;;;;;2.53;0.75;;;;;;;12.06;44.77;98559.19;10445096;28;20048;-71
2022/11/23 15:06:45;;;;;;;3.60;0.77;;;;;;;11.95;45.65;98560.41;10442678;28;20056;-70
2022/11/23 15:11:47;;;;;;;5.25;1.05;;;;;;;11.84;46.60;98571.41;10461276;28;20055;-70
2022/11/23 15:16:49;;;;;;;7.75;1.30;;;;;;;11.59;47.92;98568.84;10463507;28;20074;-70
2022/11/23 15:21:51;;;;;;;5.07;1.70;;;;;;;11.52;48.62;98578.50;10443873;28;20056;-72
2022/11/23 15:27:02;;;;;;;2.92;1.13;;;;;;;11.45;49.45;98580.19;10464377;28;20070;-72
2022/11/23 15:32:27;;;;;;;4.97;1.52;;;;;;;11.30;50.06;98572.91;10441310;28;20097;-71
2022/11/23 15:37:41;;;;;;;5.10;1.47;;;;;;;11.21;50.69;98578.41;10468989;28;20129;-69
2022/11/23 15:42:45;;;;;;;6.70;2.15;;;;;;;11.08;51.12;98581.56;10469566;28;20058;-72
2022/11/23 15:47:47;;;;;;;5.05;2.08;;;;;;;11.07;51.84;98587.91;10469939;28;20094;-70
2022/11/23 15:52:48;;;;;;;4.07;1.80;;;;;;;10.89;52.24;98591.56;10465794;28;20050;-69
2022/11/23 15:57:54;;;;;;;4.15;1.50;;;;;;;10.82;52.89;98595.06;10468882;28;20883;-72
2022/11/23 16:03:19;;;;;;;3.38;1.73;;;;;;;10.69;53.30;98592.88;10474680;28;20146;-73
2022/11/23 16:08:24;;;;;;;9.52;2.05;;;;;;;10.60;53.59;98597.38;10509331;28;20044;-71
2022/11/23 16:13:37;;;;;;;5.60;1.60;;;;;;;10.57;54.18;98598.53;10481931;28;20056;-72
2022/11/23 16:18:44;;;;;;;98.50;88.00;;;;;;;10.60;54.16;98600.03;10472955;28;20060;-69
2022/11/23 16:23:50;;;;;;;22.23;15.88;;;;;;;10.55;54.59;98595.22;10476143;28;20048;-74
2022/11/23 16:28:56;;;;;;;44.08;29.65;;;;;;;10.54;54.56;98606.84;10504719;28;20045;-76
2022/11/23 16:33:58;;;;;;;57.05;45.40;;;;;;;10.54;54.42;98614.81;10482514;28;20076;-70
2022/11/23 16:38:59;;;;;;;73.88;66.40;;;;;;;10.46;54.70;98614.78;10492953;28;20225;-71
2022/11/23 16:44:06;;;;;;;62.95;51.13;;;;;;;10.45;54.79;98629.09;10507719;28;20049;-73
2022/11/23 16:49:16;;;;;;;11.07;8.43;;;;;;;10.40;54.29;98631.41;10499582;28;20060;-70
2022/11/23 16:54:18;;;;;;;6.15;3.45;;;;;;;10.43;54.58;98653.22;10482611;28;20046;-72
2022/11/23 16:59:24;;;;;;;7.57;6.72;;;;;;;10.43;54.03;98657.69;10484028;28;20147;-72
2022/11/23 17:04:26;;;;;;;8.05;7.22;;;;;;;10.50;53.94;98655.22;10468244;28;20139;-72
2022/11/23 17:09:27;;;;;;;4.97;1.63;;;;;;;10.40;53.45;98658.00;10475814;28;20135;-70
2022/11/23 17:14:35;;;;;;;4.75;1.83;;;;;;;10.35;53.93;98666.47;10457433;28;20052;-71
2022/11/23 17:19:37;;;;;;;5.20;3.30;;;;;;;10.36;53.67;98675.31;10476779;28;20043;-70
2022/11/23 17:24:38;;;;;;;4.53;2.97;;;;;;;10.42;53.67;98693.28;10452923;28;20057;-70
2022/11/23 17:29:41;;;;;;;4.82;2.13;;;;;;;10.38;53.95;98692.75;10475730;28;21052;-70
2022/11/23 17:34:43;;;;;;;3.80;1.58;;;;;;;10.41;53.95;98699.56;10475616;28;20154;-71
2022/11/23 17:39:45;;;;;;;4.30;1.75;;;;;;;10.42;54.03;98719.88;10475644;28;20707;-71
2022/11/23 17:44:47;;;;;;;2.83;1.85;;;;;;;10.34;54.58;98728.63;10480057;28;20055;-71
2022/11/23 17:49:48;;;;;;;6.18;2.83;;;;;;;10.41;54.88;98740.31;10476632;28;20044;-70
2022/11/23 17:54:50;;;;;;;4.60;2.70;;;;;;;10.35;55.45;98764.06;10478363;28;20051;-72
2022/11/23 17:59:53;;;;;;;4.90;2.72;;;;;;;10.26;56.90;98771.94;10480552;28;20644;-69
2022/11/23 18:04:55;;;;;;;5.78;1.90;;;;;;;9.98;61.37;98783.75;10475715;28;20783;-69
2022/11/23 18:09:56;;;;;;;4.22;2.05;;;;;;;9.91;64.25;98789.69;10473495;28;20045;-70
2022/11/23 18:14:57;;;;;;;2.60;1.60;;;;;;;9.66;67.12;98790.47;10473435;28;20051;-69
2022/11/23 18:19:58;;;;;;;6.72;2.28;;;;;;;9.45;70.17;98804.91;10457862;28;20055;-69
2022/11/23 18:25:00;;;;;;;5.13;2.20;;;;;;;9.34;73.16;98821.06;10470214;28;20052;-69
2022/11/23 18:30:01;;;;;;;4.47;2.65;;;;;;;9.31;75.04;98829.34;10454020;28;20048;-72
2022/11/23 18:35:03;;;;;;;7.72;2.72;;;;;;;9.24;76.02;98830.94;10473907;28;20064;-69
2022/11/23 18:40:05;;;;;;;4.65;2.50;;;;;;;9.25;78.32;98841.41;10453467;28;20044;-71
2022/11/23 18:45:07;;;;;;;6.10;2.85;;;;;;;9.27;77.36;98852.69;10462463;28;20060;-73
2022/11/23 18:50:09;;;;;;;6.45;3.22;;;;;;;9.32;79.57;98852.25;10445949;28;20056;-69
2022/11/23 18:55:10;;;;;;;3.42;2.15;;;;;;;9.13;75.83;98848.72;10460938;28;20055;-70
2022/11/23 19:00:14;;;;;;;3.70;2.70;;;;;;;9.14;78.75;98850.41;10466138;28;20054;-69
2022/11/23 19:05:16;;;;;;;3.28;2.03;;;;;;;9.19;76.59;98853.44;10467883;28;20048;-70
2022/11/23 19:10:18;;;;;;;5.68;2.72;;;;;;;9.24;79.32;98854.81;10473888;28;20073;-72
2022/11/23 19:15:20;;;;;;;6.90;3.60;;;;;;;9.28;77.81;98872.97;10475790;28;20044;-70
2022/11/23 19:20:22;;;;;;;5.63;3.00;;;;;;;9.26;78.49;98872.25;10502688;28;20059;-73
2022/11/23 19:25:23;;;;;;;4.20;2.78;;;;;;;9.19;79.22;98890.59;10512156;28;20084;-73
2022/11/23 19:30:25;;;;;;;4.30;2.58;;;;;;;9.15;79.28;98896.38;10503773;28;20079;-69
2022/11/23 19:35:26;;;;;;;4.10;2.40;;;;;;;9.23;80.80;98907.06;10473081;28;20253;-70
2022/11/23 19:40:28;;;;;;;3.97;2.13;;;;;;;9.10;79.69;98906.59;10472646;28;20056;-70
2022/11/23 19:45:29;;;;;;;4.70;2.72;;;;;;;9.08;82.05;98914.69;10460321;28;20727;-68
2022/11/23 19:50:31;;;;;;;5.55;3.30;;;;;;;9.09;81.20;98916.38;10472173;28;21347;-69
2022/11/23 19:55:32;;;;;;;6.68;3.13;;;;;;;9.13;81.17;98922.22;10470122;28;20080;-74
2022/11/23 20:00:35;;;;;;;6.18;3.30;;;;;;;9.10;81.45;98928.66;10459600;28;20048;-69
2022/11/23 20:05:37;;;;;;;6.70;3.65;;;;;;;9.17;81.92;98944.81;10456902;28;20056;-70
2022/11/23 20:10:38;;;;;;;7.75;3.50;;;;;;;9.23;81.77;98946.06;10473734;28;20064;-68
2022/11/23 20:15:43;;;;;;;4.72;2.90;;;;;;;9.26;82.44;98953.75;10455331;28;20074;-71
2022/11/23 20:20:46;;;;;;;4.32;3.15;;;;;;;9.27;81.11;98956.25;10480815;28;20058;-71
2022/11/23 20:25:47;;;;;;;6.57;3.40;;;;;;;9.19;82.02;98978.22;10476886;28;20047;-73
2022/11/23 20:30:49;;;;;;;6.45;3.10;;;;;;;9.10;82.61;98989.72;10496401;28;20071;-70
2022/11/23 20:35:51;;;;;;;6.95;3.05;;;;;;;9.06;82.82;99000.78;10480502;28;20056;-69
2022/11/23 20:40:52;;;;;;;5.90;3.63;;;;;;;9.03;83.52;99009.84;10473570;28;20056;-69
2022/11/23 20:45:57;;;;;;;6.18;3.15;;;;;;;8.92;83.71;99002.09;10457955;28;20052;-71
2022/11/23 20:50:58;;;;;;;5.07;3.55;;;;;;;8.90;84.31;99017.28;10474020;28;20070;-70
2022/11/23 20:56:06;;;;;;;7.25;3.60;;;;;;;8.89;84.46;99018.25;10487013;28;20079;-70
2022/11/23 21:01:14;;;;;;;9.10;3.90;;;;;;;8.71;84.95;99011.06;10477204;28;20525;-69
2022/11/23 21:06:16;;;;;;;5.90;4.22;;;;;;;8.76;85.60;99029.19;10473920;28;20052;-73
2022/11/23 21:16:51;;;;;;;8.30;5.15;;;;;;;8.43;87.73;99044.53;10469184;28;20056;-71
2022/11/23 21:21:54;;;;;;;8.32;5.13;;;;;;;8.22;89.02;99040.19;10457169;28;20047;-71
2022/11/23 21:26:56;;;;;;;6.43;5.40;;;;;;;8.06;90.29;99055.78;10450154;28;20411;-72
2022/11/23 21:31:57;;;;;;;8.27;5.82;;;;;;;8.00;90.68;99062.50;10470618;28;20475;-73
2022/11/23 21:36:59;;;;;;;6.45;5.05;;;;;;;7.89;92.36;99070.53;10476750;28;21210;-73
2022/11/23 21:42:00;;;;;;;7.55;5.63;;;;;;;7.88;92.16;99074.16;10486410;28;20048;-72
2022/11/23 21:47:01;;;;;;;6.80;4.80;;;;;;;7.84;92.50;99105.41;10467862;28;20052;-69
2022/11/23 21:52:03;;;;;;;6.38;4.32;;;;;;;7.71;93.43;99102.13;10467807;28;20125;-69
2022/11/23 21:57:04;;;;;;;7.32;5.10;;;;;;;7.76;92.70;99108.72;10450864;28;20437;-68
2022/11/23 22:02:10;;;;;;;5.82;4.20;;;;;;;7.71;92.77;99116.22;10469576;28;20123;-69
2022/11/23 22:07:12;;;;;;;5.70;5.03;;;;;;;7.68;93.20;99127.06;10478761;28;20040;-71
2022/11/23 22:12:13;;;;;;;7.82;4.40;;;;;;;7.61;93.24;99123.25;10461961;28;20106;-72
2022/11/23 22:17:15;;;;;;;5.53;4.50;;;;;;;7.66;93.07;99147.56;10477808;28;20632;-71
2022/11/23 22:22:16;;;;;;;6.70;4.18;;;;;;;7.69;92.72;99147.31;10472114;28;20052;-70
2022/11/23 22:27:18;;;;;;;6.82;4.07;;;;;;;7.66;93.19;99158.16;10475651;28;20048;-74
2022/11/23 22:32:19;;;;;;;5.82;4.63;;;;;;;7.67;93.26;99156.34;10476992;28;20070;-73
2022/11/23 22:37:20;;;;;;;6.13;4.53;;;;;;;7.67;92.86;99156.34;10475017;28;20052;-71
2022/11/23 22:42:22;;;;;;;7.97;5.03;;;;;;;7.58;93.94;99172.06;10475325;28;20423;-72
2022/11/23 22:47:24;;;;;;;7.38;4.95;;;;;;;7.64;93.21;99185.75;10472239;28;20063;-71
2022/11/23 22:52:25;;;;;;;4.93;4.25;;;;;;;7.69;93.13;99192.34;10516426;28;20062;-70
2022/11/23 22:57:26;;;;;;;5.43;4.57;;;;;;;7.70;92.82;99193.16;10475078;28;20047;-70
2022/11/23 23:02:28;;;;;;;7.72;4.43;;;;;;;7.75;92.96;99202.41;10474004;28;20055;-69
2022/11/23 23:07:30;;;;;;;5.32;4.60;;;;;;;7.83;92.11;99214.97;10452457;28;20737;-72
2022/11/23 23:12:31;;;;;;;5.97;4.63;;;;;;;7.78;92.35;99218.03;10457940;28;20125;-70
2022/11/23 23:17:33;;;;;;;5.65;3.88;;;;;;;7.70;92.77;99227.59;10473546;28;20044;-69
2022/11/23 23:22:34;;;;;;;7.93;3.85;;;;;;;7.75;92.65;99231.53;10476544;28;20052;-71
2022/11/23 23:27:35;;;;;;;6.15;3.83;;;;;;;7.78;92.49;99252.47;10461764;28;20056;-69
2022/11/23 23:32:36;;;;;;;6.68;3.60;;;;;;;7.89;91.88;99245.41;10474370;28;20060;-70
2022/11/23 23:37:38;;;;;;;5.03;3.22;;;;;;;7.87;92.06;99257.97;10472390;28;20060;-69
2022/11/23 23:42:39;;;;;;;4.93;3.60;;;;;;;7.88;92.05;99263.13;10472445;28;20737;-72
2022/11/23 23:47:40;;;;;;;8.35;3.58;;;;;;;7.84;92.57;99253.78;10455334;28;20056;-70
2022/11/23 23:52:42;;;;;;;5.70;3.22;;;;;;;7.85;92.11;99259.91;10459032;28;20048;-71
2022/11/23 23:57:43;;;;;;;5.63;3.10;;;;;;;7.72;93.12;99265.41;10478829;28;20045;-69
